Rejestracja

Wszystkie dane podawane są w czasie UTC za wyjątkiem miejsc gdzie jest jednoznacznie podane, że jest inaczej. Dane podawane w serwisie mają charakter informacyjny!!!
Informacje w sprawie dostępu do serwisu pod numerem tel. +48 261-828-138

Aktualna Pogoda
 
Pogoda w Polsce
6°C Szczecin 3°C Suwałki 5°C Warszawa 5°C Poznan
8°C Opole 6°C Kraków 4°C Rzeszów
Więcej miast w Polsce

Pogoda w Europie
8°C Berlin 11°C Paryz 8°C Bruksela 5°C Oslo
7°C Praga 12°C Zagrzeb
Więcej miast w Europie

Metary wojskowe test
METAR EPBC 011400Z 27022KT 9999 SCT023 06/02 Q0998=
METAR EPCE 011400Z 28016KT 9999 BKN027 05/M00 Q0996 RMK 047 072 7/7=
METAR EPDA 011400Z 27011KT 220V310 9999 FEW020TCU 06/03 Q0998 RMK 059 080 2/2=
METAR EPDE 011400Z 26018KT 8000 -SHSNRA BKN013CB BKN024 04/02 Q0999 RMK 044 083 7/5=
METAR EPIR 011400Z 26024KT 9999 FEW015CB SCT040 BKN120 06/02 Q0999 RMK 057 077 6/2=
METAR EPKS 011400Z 26022G35KT 9999 SCT020CB BKN045 04/M01 Q1002 RMK 043 067 7/3=
METAR EPLK 011400Z 27020KT 9999 SCT020CB BKN200 04/00 Q1001 RMK 040 077 5/3=
METAR EPLY 011400Z 28018G32KT 9999 SCT027 BKN040 07/00 Q1000 RMK 073 062 7/4=
METAR EPMB 011400Z 29016KT 9999 SCT017TCU BKN040 BKN100 06/01 Q0996 RMK 058 073 7/3=
METAR EPMI 011400Z 27012KT 9999 -SHRA SCT011CB BKN020 03/02 Q1000 RMK 029 091 7/4=
METAR EPMM 011400Z 27022KT 9999 BKN020 05/02 Q0997 RMK 054 076 7/7=
METAR EPNA 011300Z 28020KT 9999 SCT012CB BKN027 07/M00 Q0998 RMK 072 059 6/3=
METAR EPOK 011400Z 29022KT 9999 BKN026 BKN037 05/01 Q0995 RMK 051 075 7/5=
METAR EPPR 011400Z 29018KT 9999 BKN032 BKN047 06/01 Q0996 RMK 059 070 7/5=
METAR EPPW 011400Z 27026G36KT 9999 BKN033 08/00 Q1000 RMK 075 060 5/5=
METAR EPSN 011400Z 27022KT 6000 -SHRASN SCT012CB BKN020 04/02 Q0999 RMK 036 089 7/4=
METAR EPTM 011400Z 26010KT 9999 SCT013CB BKN200 03/M00 Q1000 RMK 031 080 7/4=


 
Informacje ogólne
Pogoda
Warszawa
Temperatura: 5.3°C
Wiatr: 9.0 m/s
Ciśnienie: 998.2 hPa
Zjawiska: Brak
Temp. max: 5.5 °C
Temp. min: 2.6 °C


Dane astronomiczne
Warszawa:
Dzien: 12:58 h
Noc: 11:02 h


Using HW VSP powered by HW group.

Prawa autorskie©2007 SSH SZ RP. Wszelkie prawa zastrzeżone.